Time;durP1;ratioP1;P1;durP2;ratioP2;P2;SDS_P1;SDS_P2;PMS_P1;PMS_P2;Temp;Humidity;BMP_temperature;BMP_pressure;BME280_temperature;BME280_humidity;BME280_pressure;Samples;Min_cycle;Max_cycle;Signal;HPM_P1;HPM_P2
2022/10/01 00:00:47;;;;;;;5.10;4.70;;;;;;;22.38;47.22;95486.94;6160307;28;102923;-71
2022/10/01 00:03:51;;;;;;;6.30;5.80;;;;;;;22.36;47.27;95481.91;6149052;28;103188;-70
2022/10/01 00:06:58;;;;;;;6.00;5.50;;;;;;;22.36;47.71;95470.44;6159261;28;102885;-70
2022/10/01 00:10:01;;;;;;;5.93;5.33;;;;;;;22.35;47.64;95477.66;6159681;28;103062;-70
2022/10/01 00:13:04;;;;;;;5.67;5.17;;;;;;;22.33;47.20;95479.00;6160671;28;103124;-70
2022/10/01 00:16:08;;;;;;;6.03;5.07;;;;;;;22.34;47.23;95473.38;6149610;28;103072;-71
2022/10/01 00:19:14;;;;;;;5.23;4.83;;;;;;;22.35;46.88;95464.31;6159919;28;105061;-68
2022/10/01 00:22:17;;;;;;;5.30;4.90;;;;;;;22.35;47.23;95463.53;6157820;28;103224;-71
2022/10/01 00:25:21;;;;;;;5.07;4.63;;;;;;;22.36;46.96;95468.56;6160443;28;102880;-70
2022/10/01 00:28:24;;;;;;;5.53;5.13;;;;;;;22.36;47.35;95459.78;6152025;28;105129;-72
2022/10/01 00:31:28;;;;;;;5.80;5.37;;;;;;;22.36;47.12;95460.56;6159707;28;102773;-71
2022/10/01 00:34:33;;;;;;;6.03;5.57;;;;;;;22.38;47.26;95468.28;6158649;28;103631;-67
2022/10/01 00:37:36;;;;;;;5.60;5.10;;;;;;;22.36;47.33;95470.44;6140240;28;103955;-70
2022/10/01 00:40:39;;;;;;;5.57;5.07;;;;;;;22.34;46.99;95462.72;6159035;28;103285;-71
2022/10/01 00:43:45;;;;;;;5.10;4.53;;;;;;;22.35;46.91;95467.00;6158876;28;103136;-70
2022/10/01 00:46:48;;;;;;;5.30;4.90;;;;;;;22.35;47.38;95466.22;6159421;28;103245;-73
2022/10/01 00:49:56;;;;;;;5.30;4.80;;;;;;;22.33;46.99;95471.03;6150180;28;104266;-68
2022/10/01 00:53:05;;;;;;;6.47;5.97;;;;;;;22.31;47.42;95465.97;6158626;28;103367;-72
2022/10/01 00:56:08;;;;;;;5.83;5.40;;;;;;;22.29;46.86;95462.03;6159177;28;103068;-70
2022/10/01 00:59:12;;;;;;;5.87;5.37;;;;;;;22.28;46.98;95465.78;6158130;28;103237;-71
2022/10/01 01:02:15;;;;;;;5.60;5.10;;;;;;;22.30;47.22;95466.28;6148157;28;103108;-69
2022/10/01 01:05:20;;;;;;;5.40;4.90;;;;;;;22.29;47.41;95470.03;6158981;28;103661;-70
2022/10/01 01:08:23;;;;;;;5.23;4.90;;;;;;;22.29;47.32;95462.03;6159124;28;103403;-70
2022/10/01 01:11:37;;;;;;;5.13;4.83;;;;;;;22.25;47.29;95456.50;6154337;28;103310;-71
2022/10/01 01:14:53;;;;;;;5.70;5.20;;;;;;;22.23;46.81;95466.69;6157531;28;103127;-70
2022/10/01 01:18:02;;;;;;;5.60;5.10;;;;;;;22.25;47.13;95455.72;6159322;28;103071;-70
2022/10/01 01:21:18;;;;;;;6.10;5.50;;;;;;;22.24;47.29;95451.47;6159011;28;103112;-70
2022/10/01 01:24:38;;;;;;;5.57;5.17;;;;;;;22.23;47.23;95455.25;6149067;28;107029;-71
2022/10/01 01:27:45;;;;;;;6.50;5.90;;;;;;;22.20;46.88;95445.16;6158408;28;103219;-71
2022/10/01 01:30:53;;;;;;;5.37;4.97;;;;;;;22.21;47.31;95454.75;6159822;28;103468;-70
2022/10/01 01:33:57;;;;;;;5.57;5.07;;;;;;;22.18;47.11;95448.13;6152831;28;103163;-71
2022/10/01 01:37:10;;;;;;;6.00;5.50;;;;;;;22.22;47.40;95443.00;6154122;28;105761;-70
2022/10/01 01:40:16;;;;;;;5.90;5.50;;;;;;;22.21;47.05;95436.88;6158729;28;103265;-71
2022/10/01 01:43:23;;;;;;;5.70;4.73;;;;;;;22.24;46.91;95457.59;6158185;28;103503;-70
2022/10/01 01:46:32;;;;;;;5.40;4.90;;;;;;;22.22;46.83;95449.13;6145511;28;103201;-70
2022/10/01 01:49:37;;;;;;;6.00;5.50;;;;;;;22.23;46.85;95449.91;6158586;28;103103;-70
2022/10/01 01:52:40;;;;;;;5.70;5.20;;;;;;;22.22;47.20;95459.00;6158206;28;103093;-71
2022/10/01 01:55:46;;;;;;;5.93;5.27;;;;;;;22.19;47.23;95452.38;6158452;28;104323;-70
2022/10/01 01:58:50;;;;;;;5.37;4.97;;;;;;;22.19;47.09;95465.72;6148292;28;106221;-70
2022/10/01 02:01:54;;;;;;;5.20;4.50;;;;;;;22.21;47.02;95454.75;6158621;28;102950;-75
2022/10/01 02:05:02;;;;;;;4.93;4.63;;;;;;;22.21;46.72;95460.06;6157584;28;103196;-70
2022/10/01 02:08:26;;;;;;;5.43;5.13;;;;;;;22.20;47.00;95461.16;6153436;28;105422;-70
2022/10/01 02:11:35;;;;;;;5.20;4.80;;;;;;;22.20;46.59;95477.16;6156291;28;103203;-70
2022/10/01 02:14:54;;;;;;;5.73;5.17;;;;;;;22.17;46.91;95475.06;6157752;28;103227;-71
2022/10/01 02:18:09;;;;;;;5.17;4.60;;;;;;;22.19;47.12;95496.91;6158769;28;103772;-73
2022/10/01 02:21:20;;;;;;;5.47;5.07;;;;;;;22.18;47.15;95485.44;6149410;28;104341;-70
2022/10/01 02:24:32;;;;;;;4.90;4.60;;;;;;;22.19;46.80;95483.56;6162302;28;103264;-70
2022/10/01 02:27:43;;;;;;;4.90;4.53;;;;;;;22.18;46.70;95480.13;6160313;28;103120;-71
2022/10/01 02:30:48;;;;;;;7.43;4.90;;;;;;;22.17;46.94;95481.19;6157867;28;103154;-70
2022/10/01 02:33:55;;;;;;;5.27;4.90;;;;;;;22.20;46.58;95504.59;6156182;28;103283;-70
2022/10/01 02:37:02;;;;;;;5.80;5.20;;;;;;;22.18;47.03;95490.78;6161636;28;103809;-70
2022/10/01 02:40:13;;;;;;;5.47;4.97;;;;;;;22.14;46.97;95488.97;6162677;28;105916;-70
2022/10/01 02:43:22;;;;;;;7.47;5.33;;;;;;;22.09;47.13;95481.88;6153393;28;105188;-70
2022/10/01 02:46:31;;;;;;;5.90;5.00;;;;;;;22.11;46.92;95501.81;6161696;28;103136;-70
2022/10/01 02:49:40;;;;;;;5.63;5.03;;;;;;;22.12;47.07;95489.28;6161286;28;103049;-68
2022/10/01 02:52:48;;;;;;;7.80;5.60;;;;;;;22.11;47.17;95504.47;6146718;28;103251;-70
2022/10/01 02:55:52;;;;;;;4.90;4.60;;;;;;;22.12;47.09;95502.59;6151125;28;103189;-70
2022/10/01 02:58:54;;;;;;;5.20;4.80;;;;;;;22.11;46.85;95515.16;6162436;28;103281;-71
2022/10/01 03:01:57;;;;;;;6.57;5.07;;;;;;;22.13;46.61;95503.41;6159872;28;103226;-71
2022/10/01 03:05:01;;;;;;;5.07;4.77;;;;;;;22.13;46.60;95501.53;6155657;28;103663;-69
2022/10/01 03:08:04;;;;;;;5.60;5.20;;;;;;;22.11;46.57;95496.47;6156847;28;104071;-70
2022/10/01 03:11:08;;;;;;;5.67;5.13;;;;;;;22.13;46.99;95503.41;6162218;28;103509;-71
2022/10/01 03:14:11;;;;;;;5.27;4.90;;;;;;;22.10;46.74;95516.22;6160565;28;103154;-70
2022/10/01 03:17:15;;;;;;;9.53;8.60;;;;;;;22.07;46.90;95510.69;6152214;28;103753;-69
2022/10/01 03:20:20;;;;;;;8.00;7.30;;;;;;;22.04;47.27;95506.75;6161723;28;103161;-71
2022/10/01 03:23:23;;;;;;;7.73;7.13;;;;;;;22.08;46.73;95513.06;6161140;28;103152;-70
2022/10/01 03:26:26;;;;;;;7.13;6.53;;;;;;;22.08;46.95;95509.63;6160790;28;103610;-70
2022/10/01 03:29:29;;;;;;;6.77;6.20;;;;;;;22.09;47.33;95514.66;6150021;28;103155;-70
2022/10/01 03:32:32;;;;;;;6.90;6.20;;;;;;;22.10;46.83;95516.22;6149853;28;102950;-75
2022/10/01 03:35:37;;;;;;;6.07;5.57;;;;;;;22.13;47.04;95528.19;6158971;28;103312;-70
2022/10/01 03:38:40;;;;;;;7.27;6.57;;;;;;;22.11;47.36;95527.69;6156525;28;103099;-69
2022/10/01 03:41:43;;;;;;;9.00;8.20;;;;;;;22.12;47.06;95515.94;6155168;28;103133;-70
2022/10/01 03:44:46;;;;;;;11.77;10.70;;;;;;;22.10;47.25;95512.78;6161130;28;105798;-70
2022/10/01 03:47:52;;;;;;;11.23;10.27;;;;;;;22.10;46.99;95515.44;6161095;28;103568;-70
2022/10/01 03:50:58;;;;;;;10.53;9.53;;;;;;;22.08;47.07;95501.63;6150242;28;103271;-70
2022/10/01 03:54:01;;;;;;;13.00;11.73;;;;;;;22.08;47.60;95513.06;6160138;28;105476;-68
2022/10/01 03:57:04;;;;;;;11.20;10.30;;;;;;;22.09;47.35;95511.97;6159419;28;103181;-70
2022/10/01 04:00:10;;;;;;;11.40;10.03;;;;;;;22.07;47.48;95498.16;6160282;28;103130;-70
2022/10/01 04:03:14;;;;;;;10.10;9.30;;;;;;;22.03;47.17;95499.84;6150264;28;103236;-71
2022/10/01 04:06:18;;;;;;;9.40;8.67;;;;;;;22.04;46.89;95496.09;6161566;28;104321;-70
2022/10/01 04:09:21;;;;;;;8.13;7.30;;;;;;;22.06;47.35;95483.25;6161295;28;103408;-70
2022/10/01 04:12:24;;;;;;;8.73;8.00;;;;;;;22.06;47.01;95491.25;6159688;28;103042;-70
2022/10/01 04:15:27;;;;;;;8.20;7.47;;;;;;;22.05;47.21;95486.22;6149564;28;103223;-70
2022/10/01 04:18:31;;;;;;;7.90;7.10;;;;;;;22.04;47.37;95481.97;6161541;28;105479;-70
2022/10/01 04:21:35;;;;;;;7.43;6.80;;;;;;;22.04;47.46;95474.78;6152816;28;104729;-69
2022/10/01 04:24:39;;;;;;;7.97;7.17;;;;;;;22.06;47.48;95483.25;6151766;28;103179;-70
2022/10/01 04:27:55;;;;;;;6.70;6.20;;;;;;;22.07;47.43;95495.50;6157319;28;103325;-71
2022/10/01 04:34:15;;;;;;;7.37;6.60;;;;;;;22.07;47.57;95481.38;6148009;28;103026;-72
2022/10/01 04:37:20;;;;;;;8.23;7.43;;;;;;;22.09;47.33;95487.22;6150450;28;104730;-70
2022/10/01 04:40:23;;;;;;;14.17;12.97;;;;;;;22.10;47.50;95484.25;6159629;28;104696;-71
2022/10/01 04:43:26;;;;;;;9.43;8.53;;;;;;;22.09;48.02;95477.34;6159303;28;103246;-71
2022/10/01 04:46:29;;;;;;;8.43;7.83;;;;;;;22.11;47.84;95474.38;6157437;28;103861;-68
2022/10/01 04:49:33;;;;;;;8.30;7.60;;;;;;;22.10;47.71;95484.25;6151899;28;102954;-70
2022/10/01 04:52:37;;;;;;;10.27;9.40;;;;;;;22.09;47.71;95490.66;6156596;28;103387;-71
2022/10/01 04:55:40;;;;;;;9.77;8.50;;;;;;;22.09;47.88;95504.00;6159774;28;103409;-71
2022/10/01 04:58:43;;;;;;;10.70;9.80;;;;;;;22.10;48.09;95507.44;6140871;28;103308;-71
2022/10/01 05:01:46;;;;;;;10.60;9.70;;;;;;;22.11;48.21;95511.69;6147019;28;103107;-71
2022/10/01 05:04:49;;;;;;;9.53;8.50;;;;;;;22.13;47.79;95514.06;6146356;28;103199;-70
2022/10/01 05:07:54;;;;;;;10.20;8.47;;;;;;;22.12;47.89;95507.94;6149377;28;103308;-70
2022/10/01 05:10:59;;;;;;;9.90;9.00;;;;;;;22.13;47.82;95506.84;6132088;28;104508;-70
2022/10/01 05:14:02;;;;;;;10.27;8.00;;;;;;;22.01;48.53;95512.69;6158808;28;103245;-69
2022/10/01 05:17:06;;;;;;;8.40;7.60;;;;;;;22.07;48.01;95524.03;6158133;28;104467;-70
2022/10/01 05:20:14;;;;;;;8.07;7.37;;;;;;;22.10;47.74;95529.56;6153641;28;102895;-69
2022/10/01 05:23:19;;;;;;;10.17;7.00;;;;;;;21.94;47.97;95540.78;6141482;28;103713;-70
2022/10/01 05:26:22;;;;;;;8.87;7.10;;;;;;;21.82;48.15;95533.22;6158431;28;103053;-70
2022/10/01 05:29:25;;;;;;;9.67;7.70;;;;;;;21.72;48.53;95528.06;6157856;28;102930;-70
2022/10/01 05:32:28;;;;;;;23.47;21.13;;;;;;;21.32;49.84;95530.22;6154637;28;104027;-72
2022/10/01 05:35:32;;;;;;;8.40;7.63;;;;;;;20.83;49.97;95522.63;6139048;28;104159;-70
2022/10/01 05:38:36;;;;;;;12.73;11.63;;;;;;;21.06;50.09;95542.31;6146139;28;103117;-70
2022/10/01 05:41:39;;;;;;;11.80;9.93;;;;;;;21.36;49.25;95539.25;6157666;28;103165;-71
2022/10/01 05:44:45;;;;;;;10.40;9.43;;;;;;;21.50;48.33;95545.41;6149863;28;103092;-66
2022/10/01 05:47:48;;;;;;;10.10;8.27;;;;;;;21.67;48.78;95544.88;6152723;28;103222;-72
2022/10/01 05:50:53;;;;;;;8.50;7.67;;;;;;;21.76;48.23;95540.50;6154917;28;104498;-68
2022/10/01 05:54:03;;;;;;;8.00;7.40;;;;;;;21.84;47.75;95527.59;6157984;28;103137;-71
2022/10/01 05:57:08;;;;;;;9.57;8.10;;;;;;;21.88;48.47;95489.44;6136764;28;104378;-70
2022/10/01 06:00:13;;;;;;;9.63;8.50;;;;;;;21.94;48.15;95525.56;6156388;28;103370;-70
2022/10/01 06:03:16;;;;;;;10.20;9.37;;;;;;;21.95;48.26;95508.50;6151237;28;106202;-70
2022/10/01 06:06:21;;;;;;;12.10;8.87;;;;;;;21.98;48.20;95512.44;6140036;28;103685;-71
2022/10/01 06:09:26;;;;;;;13.87;11.27;;;;;;;21.77;48.66;95544.72;6143987;28;104370;-70
2022/10/01 06:12:29;;;;;;;11.23;9.30;;;;;;;21.77;49.55;95573.25;6156890;28;103345;-69
2022/10/01 06:15:36;;;;;;;18.57;16.40;;;;;;;21.64;49.89;95544.69;6158488;28;103150;-69
2022/10/01 06:18:39;;;;;;;16.87;12.53;;;;;;;21.39;50.11;95538.66;6154681;28;106181;-70
2022/10/01 06:21:42;;;;;;;17.77;15.87;;;;;;;21.60;49.60;95565.78;6154102;28;103094;-70
2022/10/01 06:24:46;;;;;;;14.10;11.70;;;;;;;21.72;49.21;95562.69;6158434;28;102874;-69
2022/10/01 06:27:52;;;;;;;12.90;9.63;;;;;;;21.84;48.85;95581.69;6156007;28;103085;-68
2022/10/01 06:30:55;;;;;;;10.77;8.70;;;;;;;21.98;48.50;95571.88;6145621;28;103285;-70
2022/10/01 06:33:58;;;;;;;11.73;10.60;;;;;;;22.03;49.62;95547.81;6154237;28;104558;-70
2022/10/01 06:37:01;;;;;;;12.27;9.17;;;;;;;22.13;48.94;95562.81;6156438;28;102979;-69
2022/10/01 06:40:07;;;;;;;10.30;8.70;;;;;;;22.24;48.00;95563.44;6156251;28;103673;-69
2022/10/01 06:43:10;;;;;;;8.50;7.80;;;;;;;22.31;48.39;95571.84;6147623;28;103327;-70
2022/10/01 06:46:13;;;;;;;8.80;7.80;;;;;;;22.42;47.72;95558.03;6156941;28;103248;-66
2022/10/01 06:49:19;;;;;;;10.80;9.80;;;;;;;22.51;48.66;95571.47;6134033;28;103002;-70
2022/10/01 06:55:45;;;;;;;14.23;12.20;;;;;;;22.75;47.65;95528.63;6134345;28;102860;-70
2022/10/01 06:58:48;;;;;;;11.30;10.20;;;;;;;22.81;47.82;95548.00;6144697;28;103408;-70
2022/10/01 07:01:52;;;;;;;13.63;9.30;;;;;;;22.67;47.48;95554.13;6157513;28;103230;-70
2022/10/01 07:04:58;;;;;;;9.83;8.83;;;;;;;22.66;47.11;95546.41;6148045;28;103690;-70
2022/10/01 07:08:01;;;;;;;10.77;7.90;;;;;;;22.69;47.16;95557.31;6160049;28;103321;-70
2022/10/01 07:11:06;;;;;;;10.60;8.70;;;;;;;22.79;47.02;95571.53;6160528;28;103207;-69
2022/10/01 07:14:09;;;;;;;11.30;8.63;;;;;;;22.81;46.89;95585.34;6161584;28;103136;-70
2022/10/01 07:17:12;;;;;;;8.03;7.23;;;;;;;22.88;46.63;95605.25;6150092;28;103213;-69
2022/10/01 07:20:17;;;;;;;8.03;7.17;;;;;;;22.89;46.58;95616.69;6161227;28;103150;-70
2022/10/01 07:23:23;;;;;;;7.77;6.97;;;;;;;22.97;46.13;95605.31;6162173;28;103272;-70
2022/10/01 07:26:27;;;;;;;8.43;6.97;;;;;;;23.05;45.77;95609.19;6155892;28;104118;-70
2022/10/01 07:29:30;;;;;;;6.43;5.93;;;;;;;23.14;45.32;95591.38;6133390;28;103448;-70
2022/10/01 07:32:34;;;;;;;7.73;7.03;;;;;;;23.08;46.30;95555.19;6147271;28;102895;-70
2022/10/01 07:35:38;;;;;;;7.90;7.10;;;;;;;23.18;46.14;95570.97;6162055;28;104094;-69
2022/10/01 07:38:42;;;;;;;7.83;7.23;;;;;;;23.18;46.10;95569.09;6149584;28;103029;-70
2022/10/01 07:41:46;;;;;;;10.20;7.70;;;;;;;23.17;46.30;95570.19;6161807;28;103108;-69
2022/10/01 07:44:49;;;;;;;8.83;6.60;;;;;;;23.26;45.93;95556.94;6161356;28;104246;-68
2022/10/01 07:47:54;;;;;;;8.00;6.70;;;;;;;23.29;45.88;95573.19;6161314;28;103234;-67
2022/10/01 07:50:57;;;;;;;8.77;6.70;;;;;;;23.39;45.44;95574.06;6144572;28;103174;-66
2022/10/01 07:54:00;;;;;;;8.80;7.37;;;;;;;23.54;45.26;95584.41;6136737;28;104293;-66
2022/10/01 07:57:04;;;;;;;7.07;6.03;;;;;;;23.57;45.29;95579.25;6137128;28;103163;-67
2022/10/01 08:00:08;;;;;;;7.77;6.20;;;;;;;23.50;45.67;95572.72;6132198;28;104133;-67
2022/10/01 08:03:12;;;;;;;7.10;6.40;;;;;;;23.43;45.68;95556.34;6144965;28;103581;-67
2022/10/01 08:06:15;;;;;;;8.43;7.03;;;;;;;23.21;45.79;95555.19;6164948;28;103192;-70
2022/10/01 08:09:18;;;;;;;9.53;8.60;;;;;;;23.04;46.67;95576.38;6159807;28;104168;-71
2022/10/01 08:12:23;;;;;;;8.00;6.90;;;;;;;23.00;47.46;95544.13;6154714;28;104254;-68
2022/10/01 08:15:26;;;;;;;9.30;7.43;;;;;;;22.91;47.54;95529.13;6151720;28;103863;-68
2022/10/01 08:18:29;;;;;;;10.03;8.70;;;;;;;22.79;47.26;95532.28;6138174;28;103278;-69
2022/10/01 08:21:34;;;;;;;9.67;8.10;;;;;;;22.74;47.34;95508.38;6144567;28;103302;-69
2022/10/01 08:24:38;;;;;;;10.20;9.30;;;;;;;22.69;47.71;95501.28;6150316;28;103279;-69
2022/10/01 08:27:43;;;;;;;23.97;21.40;;;;;;;22.58;47.74;95510.56;6151914;28;103676;-72
2022/10/01 08:30:46;;;;;;;17.00;13.17;;;;;;;22.63;48.24;95496.34;6158609;28;103595;-69
2022/10/01 08:33:49;;;;;;;14.60;13.13;;;;;;;22.66;47.89;95520.53;6158798;28;103068;-69
2022/10/01 08:36:52;;;;;;;10.67;9.53;;;;;;;22.65;48.06;95500.28;6150547;28;104021;-68
2022/10/01 08:39:56;;;;;;;10.10;9.07;;;;;;;22.58;48.28;95483.91;6160811;28;103213;-68
2022/10/01 08:43:05;;;;;;;10.93;9.40;;;;;;;22.57;48.34;95508.19;6154805;28;102851;-69
2022/10/01 08:46:14;;;;;;;27.90;10.20;;;;;;;22.57;48.70;95486.88;6154307;28;103420;-66
2022/10/01 08:49:22;;;;;;;10.50;8.20;;;;;;;22.60;49.21;95495.06;6157784;28;104727;-69
2022/10/01 08:52:29;;;;;;;11.50;8.17;;;;;;;22.73;49.77;95496.13;6156346;28;103782;-73
2022/10/01 08:55:36;;;;;;;11.70;8.90;;;;;;;22.80;49.76;95471.72;6159823;28;102886;-68
2022/10/01 08:58:44;;;;;;;12.90;9.10;;;;;;;22.83;50.09;95463.09;6150904;28;104230;-69
2022/10/01 09:01:48;;;;;;;18.10;8.77;;;;;;;22.83;50.07;95479.09;6159184;28;102802;-68
2022/10/01 09:04:53;;;;;;;11.57;7.70;;;;;;;22.74;50.19;95476.38;6158543;28;103246;-68
2022/10/01 09:08:17;;;;;;;11.53;8.30;;;;;;;22.70;50.30;95539.44;6159636;28;102983;-68
2022/10/01 09:11:36;;;;;;;9.03;7.90;;;;;;;22.68;49.11;95507.72;6152750;28;103879;-68
2022/10/01 09:15:04;;;;;;;10.90;7.23;;;;;;;22.66;49.49;95565.09;6153129;28;103111;-70
2022/10/01 09:18:18;;;;;;;10.67;7.23;;;;;;;22.53;48.72;95548.00;6143548;28;103154;-69
2022/10/01 09:21:33;;;;;;;12.30;8.13;;;;;;;22.57;49.39;95559.66;6139342;28;104851;-69
2022/10/01 09:24:43;;;;;;;11.60;7.30;;;;;;;22.61;49.35;95599.88;6156989;28;103303;-69
2022/10/01 09:27:46;;;;;;;14.47;7.53;;;;;;;22.62;49.19;95607.59;6157101;28;103097;-69
2022/10/01 09:30:57;;;;;;;13.20;7.83;;;;;;;22.64;49.43;95594.72;6155830;28;103329;-69
2022/10/01 09:34:04;;;;;;;10.50;8.07;;;;;;;22.61;49.69;95603.34;6145964;28;103985;-68
2022/10/01 09:37:13;;;;;;;12.13;8.90;;;;;;;22.64;49.10;95623.28;6158698;28;104596;-68
2022/10/01 09:40:24;;;;;;;11.67;9.10;;;;;;;22.64;49.41;95637.41;6158512;28;103222;-70
2022/10/01 09:43:30;;;;;;;15.67;9.13;;;;;;;22.63;49.46;95603.81;6134105;28;103412;-70
2022/10/01 09:46:35;;;;;;;17.53;10.73;;;;;;;22.63;50.08;95614.50;6156944;28;103246;-70
2022/10/01 09:49:41;;;;;;;19.83;11.10;;;;;;;22.63;49.49;95619.84;6157611;28;103017;-70
2022/10/01 09:52:47;;;;;;;19.90;10.77;;;;;;;22.54;49.24;95584.25;6156783;28;103116;-70
2022/10/01 09:55:54;;;;;;;25.43;11.10;;;;;;;22.60;49.66;95604.41;6146541;28;103813;-70
2022/10/01 09:59:02;;;;;;;20.97;10.70;;;;;;;22.60;49.46;95556.41;6140978;28;104426;-70
2022/10/01 10:02:18;;;;;;;19.13;9.77;;;;;;;22.72;49.46;95560.47;6152120;28;103223;-69
2022/10/01 10:05:24;;;;;;;22.50;10.80;;;;;;;22.75;49.72;95520.63;6157926;28;102982;-70
2022/10/01 10:08:30;;;;;;;19.37;11.40;;;;;;;22.74;48.89;95510.25;6141016;28;103330;-72
2022/10/01 10:11:34;;;;;;;21.53;9.50;;;;;;;22.79;50.01;95510.94;6154788;28;103590;-70
2022/10/01 10:14:40;;;;;;;15.17;10.77;;;;;;;22.76;50.81;95532.09;6157835;28;103040;-70
2022/10/01 10:17:49;;;;;;;20.07;10.13;;;;;;;22.71;51.43;95541.00;6150639;28;102885;-72
2022/10/01 10:20:53;;;;;;;13.13;9.53;;;;;;;22.67;51.35;95546.13;6147438;28;103190;-69
2022/10/01 10:23:58;;;;;;;18.43;9.97;;;;;;;22.69;51.28;95583.19;6157796;28;102866;-71
2022/10/01 10:27:04;;;;;;;21.43;11.73;;;;;;;22.69;50.87;95570.66;6157626;28;103085;-70
2022/10/01 10:30:14;;;;;;;18.63;10.80;;;;;;;22.68;51.41;95558.41;6147216;28;104767;-70
2022/10/01 10:33:20;;;;;;;14.47;11.27;;;;;;;22.68;51.56;95522.91;6156921;28;103082;-70
2022/10/01 10:36:29;;;;;;;13.63;11.73;;;;;;;22.66;51.74;95525.06;6157449;28;103525;-70
2022/10/01 10:39:35;;;;;;;17.70;12.63;;;;;;;22.66;51.35;95522.41;6158509;28;105793;-69
2022/10/01 10:42:38;;;;;;;13.27;11.30;;;;;;;22.72;52.10;95555.13;6148607;28;104439;-70
2022/10/01 10:45:45;;;;;;;12.80;11.50;;;;;;;22.74;51.86;95566.28;6162739;28;103154;-70
2022/10/01 10:48:57;;;;;;;15.73;11.33;;;;;;;22.75;51.55;95573.22;6162009;28;105002;-68
2022/10/01 10:52:02;;;;;;;15.40;10.27;;;;;;;22.76;51.86;95569.44;6156533;28;103267;-66
2022/10/01 10:55:21;;;;;;;13.03;10.30;;;;;;;22.84;51.33;95518.84;6153935;28;105324;-68
2022/10/01 10:58:26;;;;;;;13.90;10.20;;;;;;;22.86;51.62;95534.56;6157133;28;103257;-69
2022/10/01 11:01:30;;;;;;;16.87;11.10;;;;;;;22.89;51.35;95517.97;6154078;28;103194;-69
2022/10/01 11:04:41;;;;;;;13.70;10.30;;;;;;;22.90;51.98;95527.53;6134756;28;106311;-67
2022/10/01 11:07:46;;;;;;;12.30;8.90;;;;;;;22.92;51.86;95563.50;6150995;28;103535;-68
2022/10/01 11:11:03;;;;;;;10.70;8.90;;;;;;;22.94;51.66;95520.50;6151870;28;104099;-69
2022/10/01 11:14:20;;;;;;;12.20;9.17;;;;;;;22.94;51.84;95541.88;6157421;28;103083;-68
2022/10/01 11:17:54;;;;;;;16.43;9.10;;;;;;;22.89;51.96;95469.94;6143833;28;102892;-69
2022/10/01 11:21:12;;;;;;;11.07;7.90;;;;;;;22.89;52.33;95477.94;6157003;28;103680;-69
2022/10/01 11:24:28;;;;;;;9.83;8.10;;;;;;;22.88;52.41;95444.31;6162937;28;105979;-69
2022/10/01 11:27:40;;;;;;;8.43;7.60;;;;;;;22.89;52.12;95406.66;6151226;28;103172;-69
2022/10/01 11:30:53;;;;;;;9.47;8.40;;;;;;;22.88;51.97;95390.97;6162513;28;104499;-69
2022/10/01 11:34:14;;;;;;;9.90;8.07;;;;;;;22.85;52.42;95411.03;6161527;28;103395;-69
2022/10/01 11:37:35;;;;;;;8.93;8.07;;;;;;;22.91;52.31;95425.03;6162795;28;103133;-68
2022/10/01 11:40:42;;;;;;;9.60;8.60;;;;;;;22.92;51.90;95426.63;6153949;28;103693;-72
2022/10/01 11:43:52;;;;;;;13.40;9.47;;;;;;;22.83;52.45;95425.75;6162871;28;103090;-68
2022/10/01 11:47:00;;;;;;;9.13;8.33;;;;;;;22.83;52.69;95417.72;6163287;28;103105;-67
2022/10/01 11:50:08;;;;;;;9.73;8.83;;;;;;;22.83;52.54;95415.06;6153172;28;103382;-67
2022/10/01 11:53:18;;;;;;;11.80;8.07;;;;;;;22.84;52.03;95411.31;6160985;28;103318;-67
2022/10/01 11:59:53;;;;;;;8.70;7.90;;;;;;;22.84;52.35;95405.97;6161513;28;103730;-67
2022/10/01 12:03:01;;;;;;;9.37;8.33;;;;;;;22.85;52.66;95413.69;6149919;28;103297;-68
2022/10/01 12:06:08;;;;;;;8.50;7.70;;;;;;;22.84;52.80;95406.75;6160295;28;103066;-68
2022/10/01 12:09:20;;;;;;;7.83;7.10;;;;;;;22.85;53.10;95396.88;6161798;28;103162;-69
2022/10/01 12:12:28;;;;;;;8.67;7.83;;;;;;;22.86;53.19;95385.91;6153768;28;103967;-69
2022/10/01 12:15:39;;;;;;;7.67;6.73;;;;;;;22.88;53.35;95385.63;6151934;28;103267;-68
2022/10/01 12:18:51;;;;;;;7.73;7.03;;;;;;;22.88;53.31;95385.63;6158958;28;103250;-69
2022/10/01 12:21:58;;;;;;;9.80;7.33;;;;;;;22.89;53.62;95377.31;6158196;28;103297;-68
2022/10/01 12:25:03;;;;;;;10.00;7.23;;;;;;;22.93;53.52;95378.28;6150574;28;104480;-68
2022/10/01 12:28:12;;;;;;;7.87;6.53;;;;;;;22.91;53.99;95358.31;6156680;28;104097;-71
2022/10/01 12:31:22;;;;;;;10.77;7.07;;;;;;;22.97;54.81;95351.75;6155096;28;103785;-70
2022/10/01 12:34:39;;;;;;;9.10;7.27;;;;;;;23.00;54.58;95321.78;6145918;28;103155;-69
2022/10/01 12:37:59;;;;;;;12.30;7.80;;;;;;;22.99;55.18;95313.00;6135366;28;103986;-70
2022/10/01 12:41:15;;;;;;;10.37;8.47;;;;;;;23.04;55.12;95340.69;6145536;28;104166;-70
2022/10/01 12:44:44;;;;;;;17.00;11.17;;;;;;;23.06;55.61;95357.19;6146262;28;104528;-71
2022/10/01 12:48:00;;;;;;;18.10;11.60;;;;;;;23.02;56.64;95346.31;6144272;28;103402;-70
2022/10/01 12:51:21;;;;;;;18.37;12.80;;;;;;;23.03;57.21;95360.47;6151058;28;103224;-71
2022/10/01 12:54:50;;;;;;;19.10;13.10;;;;;;;23.04;57.35;95356.69;6156962;28;103395;-70
2022/10/01 12:58:03;;;;;;;21.30;16.70;;;;;;;23.02;57.60;95367.69;6160079;28;104298;-71
2022/10/01 13:01:15;;;;;;;18.77;16.00;;;;;;;22.99;57.98;95365.59;6153589;28;103259;-71
2022/10/01 13:04:37;;;;;;;21.40;17.23;;;;;;;22.89;57.54;95347.16;6158087;28;103219;-70
2022/10/01 13:07:55;;;;;;;16.97;15.37;;;;;;;22.91;57.18;95271.03;6158076;28;103253;-69
2022/10/01 13:11:07;;;;;;;19.20;14.40;;;;;;;22.94;56.95;95234.94;6146912;28;103306;-70
2022/10/01 13:14:15;;;;;;;15.70;12.73;;;;;;;22.94;56.87;95213.59;6156779;28;103411;-69
2022/10/01 13:17:26;;;;;;;17.80;14.90;;;;;;;22.98;57.41;95210.00;6156844;28;103573;-70
2022/10/01 13:20:41;;;;;;;15.40;12.53;;;;;;;22.97;57.14;95221.00;6157479;28;103360;-70
2022/10/01 13:23:50;;;;;;;14.57;12.60;;;;;;;22.97;57.61;95237.00;6148572;28;105168;-70
2022/10/01 13:27:00;;;;;;;15.37;12.77;;;;;;;22.95;57.27;95239.19;6155584;28;103191;-67
2022/10/01 13:30:14;;;;;;;15.20;12.67;;;;;;;22.99;57.90;95230.25;6145576;28;103128;-70
2022/10/01 13:33:23;;;;;;;15.10;12.20;;;;;;;23.02;57.17;95204.88;6120114;28;103353;-69
2022/10/01 13:36:31;;;;;;;13.70;12.30;;;;;;;22.98;57.65;95218.00;6138730;28;105531;-69
2022/10/01 13:39:35;;;;;;;14.20;12.60;;;;;;;23.02;57.18;95236.88;6156889;28;103064;-70
2022/10/01 13:42:45;;;;;;;15.53;10.07;;;;;;;22.99;57.58;95248.94;6156642;28;103068;-70
2022/10/01 13:45:52;;;;;;;12.00;10.73;;;;;;;22.99;57.87;95246.28;6144752;28;103925;-71
2022/10/01 13:48:56;;;;;;;12.97;11.17;;;;;;;22.97;57.93;95240.47;6156337;28;103030;-69
2022/10/01 13:52:01;;;;;;;11.00;9.90;;;;;;;23.06;58.60;95240.50;6150500;28;103261;-70
2022/10/01 13:55:04;;;;;;;11.30;9.50;;;;;;;23.07;58.31;95242.09;6156844;28;105957;-70
2022/10/01 13:58:22;;;;;;;11.07;9.87;;;;;;;23.06;58.60;95224.50;6145952;28;104809;-70
2022/10/01 14:01:38;;;;;;;11.10;10.00;;;;;;;23.06;57.97;95221.81;6156755;28;104572;-69
2022/10/01 14:04:44;;;;;;;12.77;11.37;;;;;;;23.02;58.45;95204.88;6156616;28;103846;-71
2022/10/01 14:07:49;;;;;;;13.00;11.63;;;;;;;22.98;58.21;95193.19;6149764;28;103100;-69
2022/10/01 14:17:48;;;;;;;13.97;12.70;;;;;;;23.09;58.20;95167.03;6155578;28;103261;-70
2022/10/01 14:20:59;;;;;;;14.37;12.97;;;;;;;23.10;58.50;95158.72;6143610;28;103501;-71
2022/10/01 14:24:13;;;;;;;14.10;12.33;;;;;;;23.10;58.75;95147.25;6156543;28;105010;-70
2022/10/01 14:27:22;;;;;;;12.63;11.63;;;;;;;23.09;58.26;95143.81;6157150;28;103278;-71
2022/10/01 14:30:38;;;;;;;12.33;11.13;;;;;;;23.14;58.79;95130.31;6149329;28;103188;-70
2022/10/01 14:34:13;;;;;;;13.13;11.80;;;;;;;23.18;58.26;95146.47;6139295;28;107193;-71
2022/10/01 14:37:19;;;;;;;13.50;12.20;;;;;;;23.18;58.60;95133.13;6141554;28;104563;-69
2022/10/01 14:40:24;;;;;;;12.27;11.07;;;;;;;23.19;57.97;95135.53;6151793;28;103249;-71